createdAt,value
2022-08-04T00:01:03.891Z,12.51
2022-08-04T00:03:43.921Z,12.50
2022-08-04T00:06:18.873Z,12.52
2022-08-04T00:08:53.140Z,12.45
2022-08-04T00:11:26.603Z,12.38
2022-08-04T00:14:03.100Z,12.38
2022-08-04T00:16:37.600Z,12.36
2022-08-04T00:19:12.703Z,12.34
2022-08-04T00:21:48.215Z,12.29
2022-08-04T00:24:17.563Z,12.25
2022-08-04T00:26:46.073Z,12.24
2022-08-04T00:29:14.573Z,12.28
2022-08-04T00:31:54.759Z,12.29
2022-08-04T00:34:28.691Z,12.30
2022-08-04T00:36:58.475Z,12.29
2022-08-04T00:39:27.526Z,12.28
2022-08-04T00:42:19.679Z,12.26
2022-08-04T00:45:01.433Z,12.26
2022-08-04T00:47:45.797Z,12.25
2022-08-04T00:50:26.032Z,12.20
2022-08-04T00:53:03.422Z,12.17
2022-08-04T00:55:59.824Z,12.10
2022-08-04T00:58:43.931Z,11.99
2022-08-04T01:01:22.923Z,11.91
2022-08-04T01:03:56.452Z,11.81
2022-08-04T01:06:36.762Z,11.74
2022-08-04T01:09:21.479Z,11.67
2022-08-04T01:12:07.633Z,11.68
2022-08-04T01:14:52.883Z,11.63
2022-08-04T01:17:25.644Z,11.60
2022-08-04T01:20:02.453Z,11.61
2022-08-04T01:23:07.522Z,11.57
2022-08-04T01:26:09.719Z,11.49
2022-08-04T01:29:16.097Z,11.48
2022-08-04T01:32:03.612Z,11.50
2022-08-04T01:34:36.282Z,11.53
2022-08-04T01:37:11.743Z,11.60
2022-08-04T01:39:45.773Z,11.67
2022-08-04T01:42:31.682Z,11.67
2022-08-04T01:45:05.694Z,11.62
2022-08-04T01:47:36.942Z,11.57
2022-08-04T01:50:09.652Z,11.51
2022-08-04T01:52:41.262Z,11.46
2022-08-04T01:55:11.282Z,11.41
2022-08-04T01:57:44.076Z,11.39
2022-08-04T02:00:15.993Z,11.46
2022-08-04T02:02:46.223Z,11.43
2022-08-04T02:05:17.362Z,11.44
2022-08-04T02:08:00.528Z,11.46
2022-08-04T02:10:30.482Z,11.51
2022-08-04T02:13:10.544Z,11.50
2022-08-04T02:15:54.569Z,11.49
2022-08-04T02:18:26.353Z,11.52
2022-08-04T02:20:59.566Z,11.55
2022-08-04T02:23:38.622Z,11.56
2022-08-04T02:26:12.624Z,11.54
2022-08-04T02:28:53.303Z,11.54
2022-08-04T02:31:31.732Z,11.51
2022-08-04T02:34:07.522Z,11.41
2022-08-04T02:36:38.645Z,11.35
2022-08-04T02:39:08.461Z,11.29
2022-08-04T02:41:38.044Z,11.25
2022-08-04T02:44:08.356Z,11.25
2022-08-04T02:46:40.011Z,11.21
2022-08-04T02:49:10.452Z,11.21
2022-08-04T02:51:42.953Z,11.23
2022-08-04T02:54:11.181Z,11.26
2022-08-04T02:56:41.192Z,11.27
2022-08-04T02:59:12.045Z,11.25
2022-08-04T03:01:57.955Z,11.19
2022-08-04T03:04:50.902Z,11.18
2022-08-04T03:07:32.892Z,11.23
2022-08-04T03:10:29.518Z,11.27
2022-08-04T03:13:30.492Z,11.21
2022-08-04T03:16:13.892Z,11.03
2022-08-04T03:19:19.061Z,10.90
2022-08-04T03:22:26.362Z,10.76
2022-08-04T03:25:26.242Z,10.69
2022-08-04T03:28:22.084Z,10.67
2022-08-04T03:31:11.995Z,10.56
2022-08-04T03:33:56.133Z,10.52
2022-08-04T03:37:06.782Z,10.53
2022-08-04T03:40:16.182Z,10.49
2022-08-04T03:43:57.040Z,10.51
2022-08-04T03:46:26.442Z,10.53
2022-08-04T03:49:22.882Z,10.60
2022-08-04T03:52:20.673Z,10.58
2022-08-04T03:55:10.954Z,10.57
2022-08-04T03:57:59.772Z,10.56
2022-08-04T04:00:32.212Z,10.54
2022-08-04T04:03:42.192Z,10.56
2022-08-04T04:06:34.611Z,10.49
2022-08-04T04:09:20.869Z,10.44
2022-08-04T04:12:15.063Z,10.46
2022-08-04T04:14:49.922Z,10.50
2022-08-04T04:17:40.574Z,10.59
2022-08-04T04:20:26.622Z,10.70
2022-08-04T04:23:11.007Z,10.81
2022-08-04T04:25:56.661Z,10.86
2022-08-04T04:28:51.402Z,10.94
2022-08-04T04:31:36.029Z,11.00
2022-08-04T04:34:22.992Z,11.05
2022-08-04T04:37:08.222Z,11.08
2022-08-04T04:39:53.321Z,11.14
2022-08-04T04:42:43.811Z,11.17
2022-08-04T04:45:24.502Z,11.19
2022-08-04T04:48:09.474Z,11.20
2022-08-04T04:50:55.792Z,11.20
2022-08-04T04:53:31.224Z,11.20
2022-08-04T04:56:06.860Z,11.24
2022-08-04T04:58:38.031Z,11.24
2022-08-04T05:01:38.752Z,11.21
2022-08-04T05:04:27.143Z,11.24
2022-08-04T05:07:19.663Z,11.25
2022-08-04T05:10:00.083Z,11.24
2022-08-04T05:14:31.815Z,11.22
2022-08-04T05:15:35.941Z,11.22
2022-08-04T05:18:07.581Z,11.24
2022-08-04T05:20:43.101Z,11.25
2022-08-04T05:23:16.673Z,11.28
2022-08-04T05:25:58.722Z,11.35
2022-08-04T05:28:34.300Z,11.40
2022-08-04T05:31:07.232Z,11.48
2022-08-04T05:33:42.756Z,11.50
2022-08-04T05:36:27.462Z,11.52
2022-08-04T05:39:08.241Z,11.58
2022-08-04T05:41:45.185Z,11.64
2022-08-04T05:44:17.866Z,11.71
2022-08-04T05:46:53.777Z,11.78
2022-08-04T05:49:24.682Z,11.80
2022-08-04T05:51:57.042Z,11.82
2022-08-04T05:54:26.481Z,11.86
2022-08-04T05:56:56.090Z,11.95
2022-08-04T05:59:26.642Z,12.07
2022-08-04T06:01:57.901Z,12.16
2022-08-04T06:04:31.351Z,12.27
2022-08-04T06:07:01.142Z,12.40
2022-08-04T06:09:29.412Z,12.54
2022-08-04T06:12:03.714Z,12.66
2022-08-04T06:14:39.247Z,12.78
2022-08-04T06:18:35.377Z,12.90
2022-08-04T06:20:21.932Z,13.06
2022-08-04T06:22:53.482Z,13.19
2022-08-04T06:25:24.984Z,13.29
2022-08-04T06:27:56.085Z,13.36
2022-08-04T06:30:27.381Z,13.43
2022-08-04T06:33:03.963Z,13.50
2022-08-04T06:35:34.410Z,13.55
2022-08-04T06:38:04.482Z,13.60
2022-08-04T06:40:34.757Z,13.64
2022-08-04T06:43:06.011Z,13.63
2022-08-04T06:45:36.970Z,13.64
2022-08-04T06:48:07.587Z,13.65
2022-08-04T06:51:24.725Z,13.68
2022-08-04T06:53:26.431Z,13.77
2022-08-04T06:55:57.406Z,13.83
2022-08-04T06:58:27.026Z,13.84
2022-08-04T07:01:01.799Z,13.90
2022-08-04T07:03:32.140Z,13.95
2022-08-04T07:06:06.076Z,13.96
2022-08-04T07:08:44.352Z,13.99
2022-08-04T07:11:13.572Z,14.02
2022-08-04T07:13:45.236Z,13.97
2022-08-04T07:16:15.762Z,13.92
2022-08-04T07:18:44.193Z,13.92
2022-08-04T07:21:19.044Z,13.89
2022-08-04T07:23:49.101Z,13.86
2022-08-04T07:26:19.203Z,13.84
2022-08-04T07:28:47.943Z,13.82
2022-08-04T07:31:35.224Z,13.81
2022-08-04T07:34:16.778Z,13.77
2022-08-04T07:36:52.750Z,13.73
2022-08-04T07:39:28.646Z,13.72
2022-08-04T07:41:59.380Z,13.75
2022-08-04T07:44:31.142Z,13.77
2022-08-04T07:46:59.881Z,13.84
2022-08-04T07:49:56.078Z,13.93
2022-08-04T07:52:17.246Z,14.04
2022-08-04T07:54:47.701Z,14.14
2022-08-04T07:57:20.915Z,14.21
2022-08-04T08:00:08.770Z,14.39
2022-08-04T08:02:43.145Z,14.52
2022-08-04T08:05:14.171Z,14.63
2022-08-04T08:07:50.773Z,14.66
2022-08-04T08:10:24.903Z,14.69
2022-08-04T08:12:53.873Z,14.76
2022-08-04T08:15:22.852Z,14.81
2022-08-04T08:17:58.902Z,14.92
2022-08-04T08:20:31.314Z,15.07
2022-08-04T08:23:00.821Z,15.15
2022-08-04T08:25:31.911Z,15.17
2022-08-04T08:28:00.671Z,15.25
2022-08-04T08:30:31.626Z,15.41
2022-08-04T08:33:01.872Z,15.56
2022-08-04T08:35:53.137Z,15.53
2022-08-04T08:38:44.781Z,15.41
2022-08-04T08:41:31.030Z,15.40
2022-08-04T08:44:38.015Z,15.43
2022-08-04T08:47:15.522Z,15.47
2022-08-04T08:50:04.361Z,15.40
2022-08-04T08:53:00.902Z,15.50
2022-08-04T08:55:43.211Z,15.36
2022-08-04T08:58:32.534Z,15.17
2022-08-04T09:01:11.255Z,15.15
2022-08-04T09:03:55.932Z,15.23
2022-08-04T09:06:41.972Z,15.50
2022-08-04T09:09:37.542Z,15.88
2022-08-04T09:12:13.531Z,16.03
2022-08-04T09:14:50.549Z,16.16
2022-08-04T09:17:28.411Z,16.37
2022-08-04T09:20:02.576Z,16.59
2022-08-04T09:22:40.038Z,16.69
2022-08-04T09:25:13.545Z,16.57
2022-08-04T09:27:47.322Z,16.34
2022-08-04T09:30:21.161Z,16.06
2022-08-04T09:33:04.772Z,16.16
2022-08-04T09:35:48.757Z,16.59
2022-08-04T09:38:22.365Z,16.77
2022-08-04T09:40:58.701Z,16.91
2022-08-04T09:43:57.161Z,16.81
2022-08-04T09:46:30.472Z,16.79
2022-08-04T09:49:03.301Z,17.29
2022-08-04T09:51:59.741Z,17.37
2022-08-04T09:54:41.142Z,17.65
2022-08-04T09:57:15.520Z,18.05
2022-08-04T09:59:54.601Z,18.11
2022-08-04T10:02:27.011Z,18.03
2022-08-04T10:04:58.270Z,17.76
2022-08-04T10:07:43.092Z,17.51
2022-08-04T10:10:38.365Z,17.54
2022-08-04T10:13:20.141Z,17.36
2022-08-04T10:15:58.762Z,17.15
2022-08-04T10:18:45.031Z,17.32
2022-08-04T10:21:21.011Z,17.92
2022-08-04T10:24:02.297Z,18.41
2022-08-04T10:26:36.011Z,18.74
2022-08-04T10:29:08.112Z,18.68
2022-08-04T10:31:43.869Z,18.18
2022-08-04T10:34:27.413Z,17.72
2022-08-04T10:37:05.592Z,17.35
2022-08-04T10:39:44.416Z,17.74
2022-08-04T10:42:22.719Z,18.29
2022-08-04T10:45:04.451Z,18.79
2022-08-04T10:47:39.313Z,19.20
2022-08-04T10:50:13.553Z,18.86
2022-08-04T10:52:47.374Z,18.45
2022-08-04T10:55:21.031Z,18.55
2022-08-04T10:57:52.793Z,18.81
2022-08-04T11:00:25.543Z,18.99
2022-08-04T11:03:00.682Z,19.09
2022-08-04T11:05:43.942Z,19.11
2022-08-04T11:08:21.580Z,19.24
2022-08-04T11:10:56.767Z,19.25
2022-08-04T11:13:29.934Z,19.22
2022-08-04T11:16:04.309Z,19.30
2022-08-04T11:18:49.087Z,19.61
2022-08-04T11:21:22.562Z,20.03
2022-08-04T11:24:02.301Z,20.02
2022-08-04T11:26:38.971Z,19.72
2022-08-04T11:29:21.862Z,19.73
2022-08-04T11:31:52.021Z,19.96
2022-08-04T11:34:23.291Z,20.21
2022-08-04T11:37:01.493Z,20.49
2022-08-04T11:39:34.871Z,20.73
2022-08-04T11:42:11.501Z,20.60
2022-08-04T11:44:45.032Z,20.33
2022-08-04T11:47:26.153Z,20.42
2022-08-04T11:49:59.791Z,20.49
2022-08-04T11:52:31.254Z,20.97
2022-08-04T11:55:03.712Z,21.13
2022-08-04T11:57:36.048Z,21.38
2022-08-04T12:00:10.362Z,21.71
2022-08-04T12:03:00.251Z,21.51
2022-08-04T12:05:36.934Z,21.52
2022-08-04T12:08:23.141Z,21.70
2022-08-04T12:11:03.381Z,21.89
2022-08-04T12:13:38.262Z,21.58
2022-08-04T12:16:18.182Z,20.84
2022-08-04T12:18:54.272Z,21.23
2022-08-04T12:21:30.400Z,21.14
2022-08-04T12:24:06.424Z,20.49
2022-08-04T12:26:39.401Z,19.86
2022-08-04T12:29:11.000Z,19.40
2022-08-04T12:31:46.771Z,19.14
2022-08-04T12:34:21.738Z,19.33
2022-08-04T12:37:00.413Z,19.85
2022-08-04T12:39:32.750Z,20.16
2022-08-04T12:42:05.842Z,21.19
2022-08-04T12:44:37.301Z,21.88
2022-08-04T12:47:27.689Z,22.13
2022-08-04T12:50:03.373Z,21.96
2022-08-04T12:53:01.406Z,21.56
2022-08-04T12:55:29.763Z,20.66
2022-08-04T12:57:59.092Z,20.22
2022-08-04T13:00:34.237Z,20.08
2022-08-04T13:03:10.167Z,20.10
2022-08-04T13:05:41.870Z,19.78
2022-08-04T13:08:12.031Z,20.17
2022-08-04T13:10:45.494Z,20.50
2022-08-04T13:13:17.425Z,20.06
2022-08-04T13:15:57.255Z,20.65
2022-08-04T13:18:30.401Z,21.25
2022-08-04T13:21:19.747Z,20.86
2022-08-04T13:24:10.420Z,20.04
2022-08-04T13:26:54.859Z,19.31
2022-08-04T13:29:58.949Z,18.94
2022-08-04T13:32:18.212Z,19.07
2022-08-04T13:34:49.127Z,19.65
2022-08-04T13:37:23.715Z,20.06
2022-08-04T13:39:55.843Z,20.79
2022-08-04T13:42:27.071Z,21.56
2022-08-04T13:44:58.281Z,22.29
2022-08-04T13:47:29.691Z,22.22
2022-08-04T13:50:18.012Z,21.74
2022-08-04T13:52:48.382Z,21.80
2022-08-04T13:55:25.415Z,21.27
2022-08-04T13:57:59.431Z,20.81
2022-08-04T14:00:40.022Z,20.10
2022-08-04T14:03:23.339Z,19.67
2022-08-04T14:06:14.020Z,19.37
2022-08-04T14:08:49.611Z,19.86
2022-08-04T14:12:10.070Z,19.91
2022-08-04T14:14:23.723Z,19.98
2022-08-04T14:17:02.204Z,19.73
2022-08-04T14:19:37.862Z,19.98
2022-08-04T14:22:06.251Z,19.93
2022-08-04T14:24:34.343Z,19.87
2022-08-04T14:27:03.093Z,19.97
2022-08-04T14:29:41.892Z,20.65
2022-08-04T14:32:14.087Z,20.69
2022-08-04T14:34:45.001Z,20.71
2022-08-04T14:37:19.402Z,20.21
2022-08-04T14:40:07.874Z,20.31
2022-08-04T14:42:42.972Z,20.80
2022-08-04T14:45:13.249Z,20.74
2022-08-04T14:47:52.689Z,20.47
2022-08-04T14:50:33.971Z,20.40
2022-08-04T14:53:05.855Z,19.82
2022-08-04T14:55:35.042Z,19.30
2022-08-04T14:58:34.087Z,19.04
2022-08-04T15:00:55.772Z,18.91
2022-08-04T15:03:24.920Z,18.74
2022-08-04T15:06:02.153Z,18.55
2022-08-04T15:08:34.423Z,18.42
2022-08-04T15:11:03.694Z,18.40
2022-08-04T15:13:33.692Z,18.51
2022-08-04T15:16:08.137Z,18.92
2022-08-04T15:18:38.811Z,19.41
2022-08-04T15:21:08.993Z,19.63
2022-08-04T15:23:39.179Z,19.56
2022-08-04T15:26:13.071Z,19.33
2022-08-04T15:28:45.875Z,19.30
2022-08-04T15:32:05.552Z,19.31
2022-08-04T15:34:08.471Z,19.47
2022-08-04T15:36:43.396Z,19.28
2022-08-04T15:39:23.561Z,18.98
2022-08-04T15:42:02.405Z,18.76
2022-08-04T15:44:58.488Z,18.67
2022-08-04T15:47:28.318Z,18.80
2022-08-04T15:50:15.042Z,18.91
2022-08-04T15:53:10.439Z,19.23
2022-08-04T15:55:43.876Z,19.49
2022-08-04T15:58:14.133Z,19.43
2022-08-04T16:01:18.266Z,19.36
2022-08-04T16:03:57.817Z,19.36
2022-08-04T16:06:47.442Z,19.32
2022-08-04T16:09:46.321Z,19.18
2022-08-04T16:12:54.376Z,19.27
2022-08-04T16:15:41.893Z,19.59
2022-08-04T16:18:25.400Z,19.68
2022-08-04T16:20:58.026Z,19.82
2022-08-04T16:23:54.937Z,19.73
2022-08-04T16:26:53.725Z,19.36
2022-08-04T16:29:27.586Z,19.11
2022-08-04T16:32:10.655Z,18.92
2022-08-04T16:34:54.665Z,18.89
2022-08-04T16:37:32.172Z,18.82
2022-08-04T16:40:29.804Z,19.16
2022-08-04T16:43:07.818Z,19.31
2022-08-04T16:45:47.456Z,19.27
2022-08-04T16:48:16.690Z,19.05
2022-08-04T16:50:53.041Z,18.80
2022-08-04T16:53:58.005Z,18.57
2022-08-04T16:56:15.119Z,18.13
2022-08-04T16:58:50.127Z,17.94
2022-08-04T17:01:33.308Z,17.90
2022-08-04T17:04:06.581Z,17.81
2022-08-04T17:06:37.053Z,17.62
2022-08-04T17:09:10.435Z,17.49
2022-08-04T17:11:38.855Z,17.43
2022-08-04T17:14:07.382Z,17.49
2022-08-04T17:16:39.357Z,17.67
2022-08-04T17:19:20.367Z,17.88
2022-08-04T17:22:04.761Z,17.96
2022-08-04T17:24:38.240Z,18.04
2022-08-04T17:28:08.971Z,18.22
2022-08-04T17:29:56.632Z,18.17
2022-08-04T17:32:25.269Z,17.94
2022-08-04T17:34:57.467Z,17.80
2022-08-04T17:37:40.211Z,17.70
2022-08-04T17:40:18.525Z,17.61
2022-08-04T17:52:04.247Z,17.14
2022-08-04T17:54:39.147Z,17.00
2022-08-04T17:57:20.050Z,16.91
2022-08-04T17:59:56.133Z,16.85
2022-08-04T18:02:33.519Z,16.81
2022-08-04T18:05:07.534Z,16.72
2022-08-04T18:08:39.304Z,16.69
2022-08-04T18:10:52.078Z,16.70
2022-08-04T18:13:26.226Z,16.67
2022-08-04T18:16:03.030Z,16.68
2022-08-04T18:18:31.539Z,16.67
2022-08-04T18:21:03.449Z,16.65
2022-08-04T18:23:33.765Z,16.64
2022-08-04T18:26:03.767Z,16.61
2022-08-04T18:28:34.070Z,16.54
2022-08-04T18:31:02.810Z,16.46
2022-08-04T18:33:40.807Z,16.37
2022-08-04T18:42:01.137Z,15.92
2022-08-04T18:44:51.927Z,15.81
2022-08-04T18:47:23.075Z,15.68
2022-08-04T18:50:40.174Z,15.53
2022-08-04T18:52:41.938Z,15.44
2022-08-04T18:55:56.111Z,15.38
2022-08-04T18:58:07.310Z,15.32
2022-08-04T19:00:45.796Z,15.27
2022-08-04T19:03:16.424Z,15.25
2022-08-04T19:05:51.840Z,15.22
2022-08-04T19:08:34.651Z,15.19
2022-08-04T19:11:35.290Z,15.11
2022-08-04T19:13:54.538Z,15.06
2022-08-04T19:16:29.606Z,14.92
2022-08-04T19:18:57.988Z,14.76
2022-08-04T19:22:00.873Z,14.62
2022-08-04T19:24:32.844Z,14.53
2022-08-04T19:29:54.045Z,14.38
2022-08-04T19:32:25.247Z,14.38
2022-08-04T19:34:55.640Z,14.31
2022-08-04T19:37:58.230Z,14.17
2022-08-04T19:40:13.639Z,14.03
2022-08-04T19:42:45.985Z,13.97
2022-08-04T19:45:20.173Z,13.99
2022-08-04T19:48:17.638Z,13.86
2022-08-04T19:50:48.363Z,13.72
2022-08-04T19:53:20.104Z,13.62
2022-08-04T19:56:01.711Z,13.52
2022-08-04T19:58:29.941Z,13.46
2022-08-04T20:00:58.336Z,13.41
2022-08-04T20:04:08.107Z,13.34
2022-08-04T20:06:16.101Z,13.21
2022-08-04T20:08:48.703Z,13.13
2022-08-04T20:11:18.889Z,12.99
2022-08-04T20:13:54.333Z,12.86
2022-08-04T20:16:29.697Z,12.75
2022-08-04T20:19:04.148Z,12.72
2022-08-04T20:21:53.952Z,12.72
2022-08-04T20:24:40.743Z,12.68
2022-08-04T20:27:14.667Z,12.63
2022-08-04T20:29:48.453Z,12.51
2022-08-04T20:32:20.038Z,12.44
2022-08-04T20:34:52.779Z,12.40
2022-08-04T20:37:23.267Z,12.38
2022-08-04T20:39:55.568Z,12.35
2022-08-04T20:45:16.379Z,12.29
2022-08-04T20:47:54.102Z,12.28
2022-08-04T20:50:29.740Z,12.22
2022-08-04T20:52:58.931Z,12.16
2022-08-04T20:55:29.652Z,12.17
2022-08-04T20:58:03.384Z,12.11
2022-08-04T21:00:32.356Z,12.04
2022-08-04T21:03:00.922Z,11.94
2022-08-04T21:05:31.421Z,11.85
2022-08-04T21:08:01.714Z,11.81
2022-08-04T21:10:30.364Z,11.69
2022-08-04T21:12:59.342Z,11.54
2022-08-04T21:15:58.820Z,11.48
2022-08-04T21:18:16.837Z,11.36
2022-08-04T21:20:48.310Z,11.26
2022-08-04T21:23:16.917Z,11.15
2022-08-04T21:25:50.723Z,11.01
2022-08-04T21:28:20.140Z,10.87
2022-08-04T21:30:54.245Z,10.79
2022-08-04T21:33:43.925Z,10.69
2022-08-04T21:39:04.150Z,10.42
2022-08-04T21:41:32.842Z,10.32
2022-08-04T21:44:01.211Z,10.20
2022-08-04T21:46:30.124Z,10.08
2022-08-04T21:48:59.827Z,9.96
2022-08-04T21:52:00.092Z,9.91
2022-08-04T21:54:22.182Z,9.85
2022-08-04T21:56:52.518Z,9.82
2022-08-04T21:59:23.841Z,9.82
2022-08-04T22:02:00.811Z,9.83
2022-08-04T22:04:29.663Z,9.75
2022-08-04T22:07:02.924Z,9.65
2022-08-04T22:09:38.503Z,9.53
2022-08-04T22:12:10.414Z,9.36
2022-08-04T22:14:40.714Z,9.24
2022-08-04T22:17:13.466Z,9.23
2022-08-04T22:19:55.595Z,9.22
2022-08-04T22:22:29.624Z,9.21
2022-08-04T22:28:01.599Z,9.10
2022-08-04T22:30:36.877Z,9.07
2022-08-04T22:33:08.370Z,9.04
2022-08-04T22:35:48.822Z,9.10
2022-08-04T22:38:24.031Z,9.19
2022-08-04T22:40:59.343Z,9.22
2022-08-04T22:43:33.162Z,9.24
2022-08-04T22:46:05.452Z,9.30
2022-08-04T22:48:36.759Z,9.38
2022-08-04T22:51:07.094Z,9.40
2022-08-04T22:53:37.353Z,9.41
2022-08-04T22:56:10.807Z,9.47
2022-08-04T22:58:45.396Z,9.53
2022-08-04T23:01:14.998Z,9.53
2022-08-04T23:03:50.958Z,9.55
2022-08-04T23:06:24.971Z,9.57
2022-08-04T23:08:54.931Z,9.54
2022-08-04T23:11:23.644Z,9.57
2022-08-04T23:13:51.661Z,9.59
2022-08-04T23:16:21.181Z,9.64
2022-08-04T23:18:53.051Z,9.66
2022-08-04T23:21:24.366Z,9.67
2022-08-04T23:24:00.735Z,9.65
2022-08-04T23:26:31.633Z,9.68
2022-08-04T23:29:03.521Z,9.73
2022-08-04T23:31:40.731Z,9.82
2022-08-04T23:34:12.212Z,9.88
2022-08-04T23:36:41.329Z,9.90
2022-08-04T23:39:12.173Z,10.02
2022-08-04T23:41:55.220Z,10.16
2022-08-04T23:44:26.623Z,10.24
2022-08-04T23:47:02.006Z,10.27
2022-08-04T23:49:44.889Z,10.33
2022-08-04T23:52:23.237Z,10.38
2022-08-04T23:54:59.754Z,10.41
2022-08-04T23:58:02.214Z,10.40
